sensor_id;sensor_type;location;lat;lon;timestamp;pressure;altitude;pressure_sealevel;temperature;humidity
36354;BME280;22383;51.114;13.666;2022-12-29T00:02:16;67989.56;;;7.23;100.00
36354;BME280;22383;51.114;13.666;2022-12-29T00:04:43;67979.41;;;7.14;100.00
36354;BME280;22383;51.114;13.666;2022-12-29T00:07:13;67988.63;;;7.25;100.00
36354;BME280;22383;51.114;13.666;2022-12-29T00:09:43;67997.88;;;7.35;100.00
36354;BME280;22383;51.114;13.666;2022-12-29T00:12:10;68006.53;;;7.38;100.00
36354;BME280;22383;51.114;13.666;2022-12-29T00:14:42;68015.56;;;7.47;100.00
36354;BME280;22383;51.114;13.666;2022-12-29T00:17:29;68007.31;;;7.42;100.00
36354;BME280;22383;51.114;13.666;2022-12-29T00:19:57;68019.91;;;7.48;100.00
36354;BME280;22383;51.114;13.666;2022-12-29T00:22:46;68016.72;;;7.48;100.00
36354;BME280;22383;51.114;13.666;2022-12-29T00:25:35;68019.91;;;7.48;100.00
36354;BME280;22383;51.114;13.666;2022-12-29T00:28:23;68028.03;;;7.58;100.00
36354;BME280;22383;51.114;13.666;2022-12-29T00:31:14;68041.22;;;7.72;100.00
36354;BME280;22383;51.114;13.666;2022-12-29T00:34:04;68060.63;;;7.85;100.00
36354;BME280;22383;51.114;13.666;2022-12-29T00:36:57;68066.69;;;7.95;100.00
36354;BME280;22383;51.114;13.666;2022-12-29T00:39:25;68069.69;;;8.01;100.00
36354;BME280;22383;51.114;13.666;2022-12-29T00:42:14;68080.63;;;8.06;100.00
36354;BME280;22383;51.114;13.666;2022-12-29T00:45:00;68075.00;;;8.08;100.00
36354;BME280;22383;51.114;13.666;2022-12-29T00:47:29;68073.28;;;7.99;100.00
36354;BME280;22383;51.114;13.666;2022-12-29T00:49:56;68065.34;;;7.92;100.00
36354;BME280;22383;51.114;13.666;2022-12-29T00:52:26;68061.59;;;7.91;100.00
36354;BME280;22383;51.114;13.666;2022-12-29T00:54:55;68046.31;;;7.77;100.00
36354;BME280;22383;51.114;13.666;2022-12-29T00:57:25;68039.53;;;7.71;100.00
36354;BME280;22383;51.114;13.666;2022-12-29T00:59:52;68033.13;;;7.63;100.00
36354;BME280;22383;51.114;13.666;2022-12-29T01:02:19;68031.06;;;7.63;100.00
36354;BME280;22383;51.114;13.666;2022-12-29T01:04:47;68030.84;;;7.61;100.00
36354;BME280;22383;51.114;13.666;2022-12-29T01:07:15;68030.28;;;7.60;100.00
36354;BME280;22383;51.114;13.666;2022-12-29T01:09:44;68021.22;;;7.52;100.00
36354;BME280;22383;51.114;13.666;2022-12-29T01:12:30;68015.78;;;7.49;100.00
36354;BME280;22383;51.114;13.666;2022-12-29T01:15:11;68022.56;;;7.55;100.00
36354;BME280;22383;51.114;13.666;2022-12-29T01:17:41;68012.94;;;7.47;100.00
36354;BME280;22383;51.114;13.666;2022-12-29T01:20:12;68009.94;;;7.42;100.00
36354;BME280;22383;51.114;13.666;2022-12-29T01:22:40;68024.63;;;7.55;100.00
36354;BME280;22383;51.114;13.666;2022-12-29T01:25:16;68023.31;;;7.51;100.00
36354;BME280;22383;51.114;13.666;2022-12-29T01:27:44;68016.72;;;7.48;100.00
36354;BME280;22383;51.114;13.666;2022-12-29T01:30:12;68008.63;;;7.45;100.00
36354;BME280;22383;51.114;13.666;2022-12-29T01:32:44;68009.56;;;7.44;100.00
36354;BME280;22383;51.114;13.666;2022-12-29T01:35:14;68014.63;;;7.48;100.00
36354;BME280;22383;51.114;13.666;2022-12-29T01:37:41;68010.69;;;7.45;100.00
36354;BME280;22383;51.114;13.666;2022-12-29T01:40:09;68015.56;;;7.47;100.00
36354;BME280;22383;51.114;13.666;2022-12-29T01:42:36;68008.63;;;7.45;100.00
36354;BME280;22383;51.114;13.666;2022-12-29T01:45:09;68002.97;;;7.33;100.00
36354;BME280;22383;51.114;13.666;2022-12-29T01:47:53;67996.38;;;7.29;100.00
36354;BME280;22383;51.114;13.666;2022-12-29T01:50:24;67981.66;;;7.16;100.00
36354;BME280;22383;51.114;13.666;2022-12-29T01:52:56;67980.34;;;7.19;100.00
36354;BME280;22383;51.114;13.666;2022-12-29T01:55:29;67975.06;;;7.12;100.00
36354;BME280;22383;51.114;13.666;2022-12-29T01:58:01;67977.88;;;7.15;100.00
36354;BME280;22383;51.114;13.666;2022-12-29T02:00:31;67971.31;;;7.11;100.00
36354;BME280;22383;51.114;13.666;2022-12-29T02:02:58;67981.28;;;7.18;100.00
36354;BME280;22383;51.114;13.666;2022-12-29T02:05:33;67979.22;;;7.18;100.00
36354;BME280;22383;51.114;13.666;2022-12-29T02:08:01;67966.59;;;7.05;100.00
36354;BME280;22383;51.114;13.666;2022-12-29T02:10:30;67964.69;;;7.00;100.00
36354;BME280;22383;51.114;13.666;2022-12-29T02:12:59;67967.34;;;7.08;100.00
36354;BME280;22383;51.114;13.666;2022-12-29T02:16:01;67973.38;;;7.11;100.00
36354;BME280;22383;51.114;13.666;2022-12-29T02:21:29;67977.34;;;7.14;100.00
36354;BME280;22383;51.114;13.666;2022-12-29T02:24:16;67978.47;;;7.15;100.00
36354;BME280;22383;51.114;13.666;2022-12-29T02:29:50;67987.72;;;7.26;100.00
36354;BME280;22383;51.114;13.666;2022-12-29T02:32:55;67998.63;;;7.31;100.00
36354;BME280;22383;51.114;13.666;2022-12-29T02:38:23;68013.31;;;7.45;100.00
36354;BME280;22383;51.114;13.666;2022-12-29T02:40:58;68009.94;;;7.42;100.00
36354;BME280;22383;51.114;13.666;2022-12-29T02:43:33;68007.88;;;7.42;100.00
36354;BME280;22383;51.114;13.666;2022-12-29T02:54:23;68028.22;;;7.61;100.00
36354;BME280;22383;51.114;13.666;2022-12-29T02:57:11;68037.28;;;7.69;100.00
36354;BME280;22383;51.114;13.666;2022-12-29T02:59:41;68036.13;;;7.68;100.00
36354;BME280;22383;51.114;13.666;2022-12-29T03:07:48;68035.19;;;7.69;100.00
36354;BME280;22383;51.114;13.666;2022-12-29T03:16:31;68046.31;;;7.77;100.00
36354;BME280;22383;51.114;13.666;2022-12-29T03:19:08;68034.63;;;7.69;100.00
36354;BME280;22383;51.114;13.666;2022-12-29T03:22:10;68067.25;;;7.96;100.00
36354;BME280;22383;51.114;13.666;2022-12-29T03:25:03;68083.47;;;8.08;100.00
36354;BME280;22383;51.114;13.666;2022-12-29T03:27:38;68080.25;;;8.08;100.00
36354;BME280;22383;51.114;13.666;2022-12-29T03:30:07;68084.59;;;8.09;100.00
36354;BME280;22383;51.114;13.666;2022-12-29T03:32:58;68095.75;;;8.24;100.00
36354;BME280;22383;51.114;13.666;2022-12-29T03:35:32;68088.56;;;8.20;100.00
36354;BME280;22383;51.114;13.666;2022-12-29T03:38:14;68108.72;;;8.29;100.00
36354;BME280;22383;51.114;13.666;2022-12-29T03:40:48;68110.81;;;8.36;100.00
36354;BME280;22383;51.114;13.666;2022-12-29T03:43:17;68123.66;;;8.45;100.00
36354;BME280;22383;51.114;13.666;2022-12-29T03:45:46;68127.66;;;8.56;100.00
36354;BME280;22383;51.114;13.666;2022-12-29T03:48:13;68123.84;;;8.47;100.00
36354;BME280;22383;51.114;13.666;2022-12-29T03:50:48;68135.19;;;8.58;100.00
36354;BME280;22383;51.114;13.666;2022-12-29T03:53:17;68128.59;;;8.54;100.00
36354;BME280;22383;51.114;13.666;2022-12-29T03:55:44;68134.97;;;8.55;100.00
36354;BME280;22383;51.114;13.666;2022-12-29T03:58:12;68132.53;;;8.58;100.00
36354;BME280;22383;51.114;13.666;2022-12-29T04:01:00;68143.09;;;8.65;100.00
36354;BME280;22383;51.114;13.666;2022-12-29T04:03:31;68135.56;;;8.56;100.00
36354;BME280;22383;51.114;13.666;2022-12-29T04:06:01;68135.38;;;8.60;100.00
36354;BME280;22383;51.114;13.666;2022-12-29T04:08:35;68144.81;;;8.66;100.00
36354;BME280;22383;51.114;13.666;2022-12-29T04:11:08;68117.09;;;8.63;100.00
36354;BME280;22383;51.114;13.666;2022-12-29T04:13:36;68146.13;;;8.63;100.00
36354;BME280;22383;51.114;13.666;2022-12-29T04:16:06;68147.06;;;8.68;100.00
36354;BME280;22383;51.114;13.666;2022-12-29T04:18:35;68161.97;;;8.77;100.00
36354;BME280;22383;51.114;13.666;2022-12-29T04:21:03;68158.78;;;8.77;100.00
36354;BME280;22383;51.114;13.666;2022-12-29T04:23:36;68166.13;;;8.83;100.00
36354;BME280;22383;51.114;13.666;2022-12-29T04:26:07;68171.41;;;8.91;100.00
36354;BME280;22383;51.114;13.666;2022-12-29T04:28:47;68173.31;;;8.95;100.00
36354;BME280;22383;51.114;13.666;2022-12-29T04:31:27;68162.34;;;8.82;100.00
36354;BME280;22383;51.114;13.666;2022-12-29T04:33:54;68166.69;;;8.84;100.00
36354;BME280;22383;51.114;13.666;2022-12-29T04:36:24;68182.16;;;9.00;100.00
36354;BME280;22383;51.114;13.666;2022-12-29T04:38:56;68195.75;;;9.13;100.00
36354;BME280;22383;51.114;13.666;2022-12-29T04:41:24;68198.41;;;9.13;100.00
36354;BME280;22383;51.114;13.666;2022-12-29T04:43:53;68195.19;;;9.12;100.00
36354;BME280;22383;51.114;13.666;2022-12-29T04:46:49;68201.41;;;9.18;100.00
36354;BME280;22383;51.114;13.666;2022-12-29T04:49:28;68198.00;;;9.15;100.00
36354;BME280;22383;51.114;13.666;2022-12-29T04:52:13;68195.56;;;9.10;100.00
36354;BME280;22383;51.114;13.666;2022-12-29T04:54:42;68203.28;;;9.15;100.00
36354;BME280;22383;51.114;13.666;2022-12-29T04:57:15;68178.38;;;8.99;100.00
36354;BME280;22383;51.114;13.666;2022-12-29T04:59:48;68169.13;;;8.88;100.00
36354;BME280;22383;51.114;13.666;2022-12-29T05:02:17;68167.81;;;8.85;100.00
36354;BME280;22383;51.114;13.666;2022-12-29T05:04:48;68169.13;;;8.88;100.00
36354;BME280;22383;51.114;13.666;2022-12-29T05:07:16;68149.53;;;8.73;100.00
36354;BME280;22383;51.114;13.666;2022-12-29T05:09:45;68163.47;;;8.83;100.00
36354;BME280;22383;51.114;13.666;2022-12-29T05:12:12;68168.56;;;8.88;100.00
36354;BME280;22383;51.114;13.666;2022-12-29T05:14:48;68179.69;;;8.96;100.00
36354;BME280;22383;51.114;13.666;2022-12-29T05:17:15;68183.88;;;9.02;100.00
36354;BME280;22383;51.114;13.666;2022-12-29T05:19:43;68178.19;;;8.97;100.00
36354;BME280;22383;51.114;13.666;2022-12-29T05:22:11;68178.19;;;8.97;100.00
36354;BME280;22383;51.114;13.666;2022-12-29T05:24:42;68173.69;;;8.93;100.00
36354;BME280;22383;51.114;13.666;2022-12-29T05:27:10;68173.88;;;8.95;100.00
36354;BME280;22383;51.114;13.666;2022-12-29T05:29:46;68184.44;;;9.02;100.00
36354;BME280;22383;51.114;13.666;2022-12-29T05:32:14;68182.72;;;9.01;100.00
36354;BME280;22383;51.114;13.666;2022-12-29T05:34:42;68179.53;;;9.00;100.00
36354;BME280;22383;51.114;13.666;2022-12-29T05:37:09;68194.06;;;9.11;100.00
36354;BME280;22383;51.114;13.666;2022-12-29T05:39:38;68188.75;;;9.04;100.00
36354;BME280;22383;51.114;13.666;2022-12-29T05:42:06;68182.16;;;9.00;100.00
36354;BME280;22383;51.114;13.666;2022-12-29T05:44:49;68186.34;;;9.06;100.00
36354;BME280;22383;51.114;13.666;2022-12-29T05:47:50;68189.91;;;9.05;100.00
36354;BME280;22383;51.114;13.666;2022-12-29T05:50:37;68186.69;;;9.04;100.00
36354;BME280;22383;51.114;13.666;2022-12-29T05:53:15;68202.91;;;9.17;100.00
36354;BME280;22383;51.114;13.666;2022-12-29T05:55:49;68190.28;;;9.10;100.00
36354;BME280;22383;51.114;13.666;2022-12-29T05:58:19;68195.75;;;9.13;100.00
36354;BME280;22383;51.114;13.666;2022-12-29T06:00:48;68199.72;;;9.16;100.00
36354;BME280;22383;51.114;13.666;2022-12-29T06:03:15;68201.25;;;9.15;100.00
36354;BME280;22383;51.114;13.666;2022-12-29T06:05:44;68196.31;;;9.13;100.00
36354;BME280;22383;51.114;13.666;2022-12-29T06:08:14;68205.00;;;9.23;100.00
36354;BME280;22383;51.114;13.666;2022-12-29T06:10:41;68212.53;;;9.25;100.00
36354;BME280;22383;51.114;13.666;2022-12-29T06:13:08;68217.09;;;9.30;100.00
36354;BME280;22383;51.114;13.666;2022-12-29T06:15:48;68206.91;;;9.20;100.00
36354;BME280;22383;51.114;13.666;2022-12-29T06:18:18;68203.13;;;9.19;100.00
36354;BME280;22383;51.114;13.666;2022-12-29T06:20:47;68213.88;;;9.29;100.00
36354;BME280;22383;51.114;13.666;2022-12-29T06:23:17;68204.81;;;9.21;100.00
36354;BME280;22383;51.114;13.666;2022-12-29T06:25:47;68211.59;;;9.27;100.00
36354;BME280;22383;51.114;13.666;2022-12-29T06:28:16;68201.03;;;9.20;100.00
36354;BME280;22383;51.114;13.666;2022-12-29T06:30:45;68208.22;;;9.24;100.00
36354;BME280;22383;51.114;13.666;2022-12-29T06:33:20;68202.72;;;9.14;100.00
36354;BME280;22383;51.114;13.666;2022-12-29T06:35:47;68176.53;;;9.17;100.00
36354;BME280;22383;51.114;13.666;2022-12-29T06:38:17;68197.44;;;9.14;100.00
36354;BME280;22383;51.114;13.666;2022-12-29T06:40:46;68194.63;;;9.12;100.00
36354;BME280;22383;51.114;13.666;2022-12-29T06:43:19;68193.69;;;9.13;100.00
36354;BME280;22383;51.114;13.666;2022-12-29T06:46:09;68189.69;;;9.02;100.00
36354;BME280;22383;51.114;13.666;2022-12-29T06:48:36;68191.03;;;9.06;100.00
36354;BME280;22383;51.114;13.666;2022-12-29T06:51:03;68187.44;;;9.07;100.00
36354;BME280;22383;51.114;13.666;2022-12-29T06:53:30;68183.88;;;9.02;100.00
36354;BME280;22383;51.114;13.666;2022-12-29T06:55:57;68151.59;;;8.73;100.00
36354;BME280;22383;51.114;13.666;2022-12-29T06:58:24;68151.41;;;8.70;100.00
36354;BME280;22383;51.114;13.666;2022-12-29T07:00:52;68158.00;;;8.74;100.00
36354;BME280;22383;51.114;13.666;2022-12-29T07:03:19;68166.50;;;8.81;100.00
36354;BME280;22383;51.114;13.666;2022-12-29T07:05:46;68154.44;;;8.75;100.00
36354;BME280;22383;51.114;13.666;2022-12-29T07:08:13;68159.72;;;8.75;100.00
36354;BME280;22383;51.114;13.666;2022-12-29T07:10:43;68145.75;;;8.72;100.00
36354;BME280;22383;51.114;13.666;2022-12-29T07:13:10;68141.41;;;8.63;100.00
36354;BME280;22383;51.114;13.666;2022-12-29T07:15:37;68131.94;;;8.50;100.00
36354;BME280;22383;51.114;13.666;2022-12-29T07:18:05;68121.03;;;8.45;100.00
36354;BME280;22383;51.114;13.666;2022-12-29T07:20:32;68145.94;;;8.67;100.00
36354;BME280;22383;51.114;13.666;2022-12-29T07:22:59;68139.16;;;8.61;100.00
36354;BME280;22383;51.114;13.666;2022-12-29T07:25:26;68141.97;;;8.64;100.00
36354;BME280;22383;51.114;13.666;2022-12-29T07:27:54;68141.41;;;8.63;100.00
36354;BME280;22383;51.114;13.666;2022-12-29T07:30:21;68147.84;;;8.72;100.00
36354;BME280;22383;51.114;13.666;2022-12-29T07:32:48;68155.56;;;8.76;100.00
36354;BME280;22383;51.114;13.666;2022-12-29T07:35:16;68155.56;;;8.76;100.00
36354;BME280;22383;51.114;13.666;2022-12-29T07:37:43;68157.81;;;8.71;100.00
36354;BME280;22383;51.114;13.666;2022-12-29T07:40:11;68153.84;;;8.75;100.00
36354;BME280;22383;51.114;13.666;2022-12-29T07:42:38;68147.63;;;8.69;100.00
36354;BME280;22383;51.114;13.666;2022-12-29T07:45:08;68159.31;;;8.77;100.00
36354;BME280;22383;51.114;13.666;2022-12-29T07:47:48;68152.72;;;8.74;100.00
36354;BME280;22383;51.114;13.666;2022-12-29T07:50:16;68153.13;;;8.79;100.00
36354;BME280;22383;51.114;13.666;2022-12-29T07:52:43;68165.94;;;8.81;100.00
36354;BME280;22383;51.114;13.666;2022-12-29T07:55:15;68162.91;;;8.83;100.00
36354;BME280;22383;51.114;13.666;2022-12-29T07:57:42;68170.06;;;8.87;100.00
36354;BME280;22383;51.114;13.666;2022-12-29T08:00:13;68164.44;;;8.89;100.00
36354;BME280;22383;51.114;13.666;2022-12-29T08:02:40;68182.72;;;9.01;100.00
36354;BME280;22383;51.114;13.666;2022-12-29T08:05:09;68169.50;;;8.86;100.00
36354;BME280;22383;51.114;13.666;2022-12-29T08:07:36;68177.06;;;8.96;100.00
36354;BME280;22383;51.114;13.666;2022-12-29T08:10:04;68171.41;;;8.91;100.00
36354;BME280;22383;51.114;13.666;2022-12-29T08:12:32;68192.16;;;9.07;100.00
36354;BME280;22383;51.114;13.666;2022-12-29T08:14:59;68211.81;;;9.22;100.00
36354;BME280;22383;51.114;13.666;2022-12-29T08:17:27;68204.25;;;9.20;100.00
36354;BME280;22383;51.114;13.666;2022-12-29T08:19:54;68202.19;;;9.21;100.00
36354;BME280;22383;51.114;13.666;2022-12-29T08:22:33;68200.84;;;9.17;100.00
36354;BME280;22383;51.114;13.666;2022-12-29T08:25:00;68220.50;;;9.33;100.00
36354;BME280;22383;51.114;13.666;2022-12-29T08:27:27;68213.88;;;9.29;100.00
36354;BME280;22383;51.114;13.666;2022-12-29T08:29:54;68218.59;;;9.28;100.00
36354;BME280;22383;51.114;13.666;2022-12-29T08:32:21;68204.25;;;9.20;100.00
36354;BME280;22383;51.114;13.666;2022-12-29T08:34:49;68215.56;;;9.31;100.00
36354;BME280;22383;51.114;13.666;2022-12-29T08:37:16;68219.91;;;9.32;100.00
36354;BME280;22383;51.114;13.666;2022-12-29T08:39:43;68213.50;;;9.31;100.00
36354;BME280;22383;51.114;13.666;2022-12-29T08:42:11;68220.66;;;9.35;100.00
36354;BME280;22383;51.114;13.666;2022-12-29T08:44:39;68217.84;;;9.33;100.00
36354;BME280;22383;51.114;13.666;2022-12-29T08:47:06;68208.41;;;9.26;100.00
36354;BME280;22383;51.114;13.666;2022-12-29T08:49:35;68217.66;;;9.30;100.00
36354;BME280;22383;51.114;13.666;2022-12-29T08:52:02;68203.31;;;9.22;100.00
36354;BME280;22383;51.114;13.666;2022-12-29T08:54:29;68198.41;;;9.20;100.00
36354;BME280;22383;51.114;13.666;2022-12-29T08:56:59;68192.56;;;9.12;100.00
36354;BME280;22383;51.114;13.666;2022-12-29T08:59:38;68199.16;;;9.16;100.00
36354;BME280;22383;51.114;13.666;2022-12-29T09:02:05;68207.47;;;9.21;100.00
36354;BME280;22383;51.114;13.666;2022-12-29T09:04:33;68215.38;;;9.28;100.00
36354;BME280;22383;51.114;13.666;2022-12-29T09:07:04;68204.81;;;9.21;100.00
36354;BME280;22383;51.114;13.666;2022-12-29T09:09:35;68195.19;;;9.12;100.00
36354;BME280;22383;51.114;13.666;2022-12-29T09:12:02;68214.44;;;9.30;100.00
36354;BME280;22383;51.114;13.666;2022-12-29T09:14:32;68232.94;;;9.44;100.00
36354;BME280;22383;51.114;13.666;2022-12-29T09:16:59;68231.06;;;9.40;100.00
36354;BME280;22383;51.114;13.666;2022-12-29T09:19:45;68234.09;;;9.45;100.00
36354;BME280;22383;51.114;13.666;2022-12-29T09:22:12;68225.19;;;9.39;100.00
36354;BME280;22383;51.114;13.666;2022-12-29T09:24:42;68228.03;;;9.42;100.00
36354;BME280;22383;51.114;13.666;2022-12-29T09:27:12;68242.75;;;9.55;100.00
36354;BME280;22383;51.114;13.666;2022-12-29T09:29:41;68246.16;;;9.58;100.00
36354;BME280;22383;51.114;13.666;2022-12-29T09:32:11;68260.91;;;9.72;100.00
36354;BME280;22383;51.114;13.666;2022-12-29T09:34:47;68263.16;;;9.74;100.00
36354;BME280;22383;51.114;13.666;2022-12-29T09:37:14;68277.13;;;9.84;100.00
36354;BME280;22383;51.114;13.666;2022-12-29T09:39:42;68288.09;;;9.96;100.00
36354;BME280;22383;51.114;13.666;2022-12-29T09:47:24;68354.97;;;10.57;100.00
36354;BME280;22383;51.114;13.666;2022-12-29T09:49:53;68357.06;;;10.56;100.00
36354;BME280;22383;51.114;13.666;2022-12-29T09:52:24;68370.09;;;10.68;100.00
36354;BME280;22383;51.114;13.666;2022-12-29T09:55:02;68354.41;;;10.56;100.00
36354;BME280;22383;51.114;13.666;2022-12-29T09:57:56;68363.50;;;10.65;100.00
36354;BME280;22383;51.114;13.666;2022-12-29T10:00:41;68404.88;;;11.02;100.00
36354;BME280;22383;51.114;13.666;2022-12-29T10:03:24;68420.41;;;11.19;100.00
36354;BME280;22383;51.114;13.666;2022-12-29T10:06:05;68443.84;;;11.35;100.00
36354;BME280;22383;51.114;13.666;2022-12-29T10:08:39;68444.22;;;11.40;100.00
36354;BME280;22383;51.114;13.666;2022-12-29T10:17:01;68457.44;;;11.47;100.00
36354;BME280;22383;51.114;13.666;2022-12-29T10:22:32;68470.28;;;11.64;100.00
36354;BME280;22383;51.114;13.666;2022-12-29T10:25:11;68484.66;;;11.79;100.00
36354;BME280;22383;51.114;13.666;2022-12-29T10:27:39;68500.19;;;11.88;100.00
36354;BME280;22383;51.114;13.666;2022-12-29T10:30:11;68483.72;;;11.73;100.00
36354;BME280;22383;51.114;13.666;2022-12-29T10:32:45;68478.06;;;11.68;100.00
36354;BME280;22383;51.114;13.666;2022-12-29T10:35:21;68504.19;;;11.92;100.00
36354;BME280;22383;51.114;13.666;2022-12-29T10:41:02;68514.41;;;12.01;100.00
36354;BME280;22383;51.114;13.666;2022-12-29T10:43:39;68505.69;;;11.98;100.00
36354;BME280;22383;51.114;13.666;2022-12-29T10:46:13;68479.75;;;11.70;100.00
36354;BME280;22383;51.114;13.666;2022-12-29T10:48:41;68485.44;;;11.75;100.00
36354;BME280;22383;51.114;13.666;2022-12-29T10:51:20;68458.38;;;11.53;100.00
36354;BME280;22383;51.114;13.666;2022-12-29T10:56:51;68453.28;;;11.41;100.00
36354;BME280;22383;51.114;13.666;2022-12-29T10:59:25;68500.41;;;11.91;100.00
36354;BME280;22383;51.114;13.666;2022-12-29T11:02:10;68495.84;;;11.87;100.00
36354;BME280;22383;51.114;13.666;2022-12-29T11:07:30;68508.72;;;11.96;100.00
36354;BME280;22383;51.114;13.666;2022-12-29T11:10:21;68484.88;;;11.75;100.00
36354;BME280;22383;51.114;13.666;2022-12-29T11:13:01;68477.69;;;11.63;100.00
36354;BME280;22383;51.114;13.666;2022-12-29T11:15:42;68455.19;;;11.45;100.00
36354;BME280;22383;51.114;13.666;2022-12-29T11:18:37;68446.28;;;11.40;100.00
36354;BME280;22383;51.114;13.666;2022-12-29T11:21:06;68431.94;;;11.24;100.00
36354;BME280;22383;51.114;13.666;2022-12-29T11:23:58;68389.00;;;10.88;100.00
36354;BME280;22383;51.114;13.666;2022-12-29T11:26:26;68399.78;;;10.97;100.00
36354;BME280;22383;51.114;13.666;2022-12-29T11:29:21;68416.59;;;11.10;100.00
36354;BME280;22383;51.114;13.666;2022-12-29T11:31:57;68418.50;;;11.14;100.00
36354;BME280;22383;51.114;13.666;2022-12-29T11:34:31;68413.00;;;11.12;100.00
36354;BME280;22383;51.114;13.666;2022-12-29T11:37:06;68423.03;;;11.19;100.00
36354;BME280;22383;51.114;13.666;2022-12-29T11:39:57;68437.78;;;11.32;100.00
36354;BME280;22383;51.114;13.666;2022-12-29T11:42:37;68440.97;;;11.32;100.00
36354;BME280;22383;51.114;13.666;2022-12-29T11:45:13;68449.69;;;11.43;100.00
36354;BME280;22383;51.114;13.666;2022-12-29T11:47:45;68470.69;;;11.62;100.00
36354;BME280;22383;51.114;13.666;2022-12-29T11:50:24;68465.00;;;11.57;100.00
36354;BME280;22383;51.114;13.666;2022-12-29T11:53:21;68442.31;;;11.36;100.00
36354;BME280;22383;51.114;13.666;2022-12-29T11:55:51;68430.03;;;11.27;100.00
36354;BME280;22383;51.114;13.666;2022-12-29T11:58:19;68435.91;;;11.28;100.00
36354;BME280;22383;51.114;13.666;2022-12-29T12:00:48;68417.16;;;11.11;100.00
36354;BME280;22383;51.114;13.666;2022-12-29T12:03:19;68432.09;;;11.27;100.00
36354;BME280;22383;51.114;13.666;2022-12-29T12:05:56;68415.66;;;11.12;100.00
36354;BME280;22383;51.114;13.666;2022-12-29T12:08:56;68411.50;;;11.06;100.00
36354;BME280;22383;51.114;13.666;2022-12-29T12:11:30;68420.38;;;11.11;100.00
36354;BME280;22383;51.114;13.666;2022-12-29T12:14:15;68398.25;;;10.98;100.00
36354;BME280;22383;51.114;13.666;2022-12-29T12:17:10;68405.25;;;11.00;100.00
36354;BME280;22383;51.114;13.666;2022-12-29T12:19:59;68439.31;;;11.31;100.00
36354;BME280;22383;51.114;13.666;2022-12-29T12:25:13;68439.47;;;11.33;100.00
36354;BME280;22383;51.114;13.666;2022-12-29T12:27:56;68437.03;;;11.36;100.00
36354;BME280;22383;51.114;13.666;2022-12-29T12:30:43;68460.84;;;11.50;100.00
36354;BME280;22383;51.114;13.666;2022-12-29T12:33:18;68454.97;;;11.43;100.00
36354;BME280;22383;51.114;13.666;2022-12-29T12:36:19;68488.25;;;11.78;100.00
36354;BME280;22383;51.114;13.666;2022-12-29T12:39:10;68513.81;;;12.01;100.00
36354;BME280;22383;51.114;13.666;2022-12-29T12:47:41;68507.78;;;11.98;100.00
36354;BME280;22383;51.114;13.666;2022-12-29T12:50:32;68510.22;;;12.02;100.00
36354;BME280;22383;51.114;13.666;2022-12-29T12:56:19;68509.84;;;11.97;100.00
36354;BME280;22383;51.114;13.666;2022-12-29T12:59:10;68515.34;;;12.00;100.00
36354;BME280;22383;51.114;13.666;2022-12-29T13:02:06;68508.91;;;11.99;100.00
36354;BME280;22383;51.114;13.666;2022-12-29T13:05:09;68530.09;;;12.13;100.00
36354;BME280;22383;51.114;13.666;2022-12-29T13:07:53;68518.75;;;12.03;100.00
36354;BME280;22383;51.114;13.666;2022-12-29T13:10:32;68505.88;;;11.94;100.00
36354;BME280;22383;51.114;13.666;2022-12-29T13:16:19;68516.28;;;12.05;100.00
36354;BME280;22383;51.114;13.666;2022-12-29T13:21:51;68509.69;;;11.95;100.00
36354;BME280;22383;51.114;13.666;2022-12-29T13:24:53;68492.25;;;11.81;100.00
36354;BME280;22383;51.114;13.666;2022-12-29T13:27:44;68492.25;;;11.81;100.00
36354;BME280;22383;51.114;13.666;2022-12-29T13:30:19;68466.31;;;11.60;100.00
36354;BME280;22383;51.114;13.666;2022-12-29T13:33:13;68448.53;;;11.63;100.00
36354;BME280;22383;51.114;13.666;2022-12-29T13:36:09;68459.53;;;11.54;100.00
36354;BME280;22383;51.114;13.666;2022-12-29T13:38:45;68458.78;;;11.51;100.00
36354;BME280;22383;51.114;13.666;2022-12-29T13:41:25;68449.69;;;11.43;100.00
36354;BME280;22383;51.114;13.666;2022-12-29T13:43:54;68453.66;;;11.46;100.00
36354;BME280;22383;51.114;13.666;2022-12-29T13:46:29;68448.75;;;11.37;100.00
36354;BME280;22383;51.114;13.666;2022-12-29T13:49:02;68430.97;;;11.26;100.00
36354;BME280;22383;51.114;13.666;2022-12-29T13:51:32;68435.69;;;11.25;100.00
36354;BME280;22383;51.114;13.666;2022-12-29T13:56:56;68425.09;;;11.18;100.00
36354;BME280;22383;51.114;13.666;2022-12-29T13:59:44;68423.03;;;11.19;100.00
36354;BME280;22383;51.114;13.666;2022-12-29T14:02:19;68431.72;;;11.29;100.00
36354;BME280;22383;51.114;13.666;2022-12-29T14:05:15;68419.06;;;11.15;100.00
36354;BME280;22383;51.114;13.666;2022-12-29T14:08:04;68418.50;;;11.14;100.00
36354;BME280;22383;51.114;13.666;2022-12-29T14:10:37;68417.38;;;11.13;100.00
36354;BME280;22383;51.114;13.666;2022-12-29T14:13:11;68407.16;;;11.04;100.00
36354;BME280;22383;51.114;13.666;2022-12-29T14:15:54;68403.94;;;11.04;100.00
36354;BME280;22383;51.114;13.666;2022-12-29T14:18:25;68411.50;;;11.06;100.00
36354;BME280;22383;51.114;13.666;2022-12-29T14:21:39;68414.16;;;11.06;100.00
36354;BME280;22383;51.114;13.666;2022-12-29T14:23:48;68418.88;;;11.12;100.00
36354;BME280;22383;51.114;13.666;2022-12-29T14:28:55;68409.78;;;11.04;100.00
36354;BME280;22383;51.114;13.666;2022-12-29T14:39:28;68377.47;;;10.75;100.00
36354;BME280;22383;51.114;13.666;2022-12-29T14:42:00;68382.56;;;10.79;100.00
36354;BME280;22383;51.114;13.666;2022-12-29T14:44:30;68381.84;;;10.76;100.00
36354;BME280;22383;51.114;13.666;2022-12-29T14:47:00;68390.91;;;10.85;100.00
36354;BME280;22383;51.114;13.666;2022-12-29T14:49:40;68384.66;;;10.79;100.00